createdAt,value
2018-12-01T00:01:49.752Z,93779.15
2018-12-01T00:04:18.080Z,93783.75
2018-12-01T00:06:46.173Z,93782.63
2018-12-01T00:09:14.493Z,93787.45
2018-12-01T00:11:42.677Z,93791.08
2018-12-01T00:14:11.009Z,93800.58
2018-12-01T00:16:39.441Z,93798.70
2018-12-01T00:19:07.723Z,93793.42
2018-12-01T00:21:36.017Z,93798.27
2018-12-01T00:24:04.501Z,93796.23
2018-12-01T00:26:32.952Z,93799.91
2018-12-01T00:29:01.266Z,93796.47
2018-12-01T00:31:29.454Z,93809.53
2018-12-01T00:33:57.786Z,93800.43
2018-12-01T00:36:26.108Z,93805.29
2018-12-01T00:38:54.743Z,93801.02
2018-12-01T00:41:23.007Z,93805.34
2018-12-01T00:43:51.447Z,93810.23
2018-12-01T00:46:19.763Z,93801.00
2018-12-01T00:48:47.951Z,93794.08
2018-12-01T00:51:16.147Z,93798.64
2018-12-01T00:53:44.263Z,93790.45
2018-12-01T00:56:12.476Z,93787.27
2018-12-01T00:58:40.846Z,93788.63
2018-12-01T01:01:09.126Z,93777.75
2018-12-01T01:03:37.484Z,93769.91
2018-12-01T01:06:05.954Z,93770.77
2018-12-01T01:08:34.463Z,93768.25
2018-12-01T01:11:02.822Z,93760.34
2018-12-01T01:13:31.171Z,93768.80
2018-12-01T01:15:59.447Z,93789.00
2018-12-01T01:18:27.683Z,93777.86
2018-12-01T01:20:55.926Z,93770.65
2018-12-01T01:23:24.141Z,93773.47
2018-12-01T01:25:52.344Z,93779.72
2018-12-01T01:28:20.733Z,93762.11
2018-12-01T01:30:48.936Z,93761.76
2018-12-01T01:33:29.650Z,93746.59
2018-12-01T01:35:58.136Z,93744.87
2018-12-01T01:38:26.382Z,93729.39
2018-12-01T01:41:00.094Z,93712.73
2018-12-01T01:43:28.521Z,93720.05
2018-12-01T01:45:57.129Z,93729.73
2018-12-01T01:48:25.243Z,93724.54
2018-12-01T01:50:53.672Z,93718.97
2018-12-01T01:53:21.968Z,93710.17
2018-12-01T01:55:50.091Z,93718.22
2018-12-01T01:58:18.423Z,93716.62
2018-12-01T02:00:46.674Z,93714.08
2018-12-01T02:03:14.979Z,93710.28
2018-12-01T02:05:43.338Z,93707.84
2018-12-01T02:08:11.431Z,93725.58
2018-12-01T02:10:39.618Z,93731.77
2018-12-01T02:13:08.026Z,93724.12
2018-12-01T02:15:36.329Z,93715.34
2018-12-01T02:18:05.085Z,93707.89
2018-12-01T02:20:33.497Z,93698.23
2018-12-01T02:23:01.694Z,93695.13
2018-12-01T02:25:30.050Z,93694.36
2018-12-01T02:27:58.370Z,93704.11
2018-12-01T02:30:26.936Z,93714.08
2018-12-01T02:32:55.669Z,93716.84
2018-12-01T02:35:26.051Z,93735.67
2018-12-01T02:37:55.026Z,93720.91
2018-12-01T02:40:22.649Z,93733.57
2018-12-01T02:42:50.961Z,93737.53
2018-12-01T02:45:30.396Z,93740.44
2018-12-01T02:47:58.565Z,93737.47
2018-12-01T02:50:28.164Z,93746.45
2018-12-01T02:52:57.078Z,93734.95
2018-12-01T02:55:25.369Z,93731.91
2018-12-01T02:57:53.795Z,93747.01
2018-12-01T03:00:22.409Z,93736.58
2018-12-01T03:02:51.927Z,93731.88
2018-12-01T03:05:22.236Z,93737.30
2018-12-01T03:07:50.695Z,93735.13
2018-12-01T03:10:20.276Z,93740.78
2018-12-01T03:12:48.723Z,93736.77
2018-12-01T03:15:18.478Z,93736.47
2018-12-01T03:17:47.388Z,93741.27
2018-12-01T03:20:16.175Z,93748.75
2018-12-01T03:22:44.539Z,93743.30
2018-12-01T03:25:24.312Z,93734.55
2018-12-01T03:27:53.615Z,93738.98
2018-12-01T03:30:22.772Z,93748.93
2018-12-01T03:32:51.744Z,93747.80
2018-12-01T03:35:20.518Z,93743.87
2018-12-01T03:37:49.312Z,93733.11
2018-12-01T03:40:18.086Z,93736.88
2018-12-01T03:42:46.336Z,93728.58
2018-12-01T03:45:16.385Z,93735.84
2018-12-01T03:47:44.736Z,93733.66
2018-12-01T03:50:18.190Z,93737.27
2018-12-01T03:52:46.473Z,93743.42
2018-12-01T03:55:23.991Z,93749.08
2018-12-01T03:57:52.465Z,93744.11
2018-12-01T04:00:27.926Z,93744.17
2018-12-01T04:02:56.665Z,93739.59
2018-12-01T04:05:25.174Z,93740.42
2018-12-01T04:07:53.583Z,93743.81
2018-12-01T04:10:21.931Z,93742.82
2018-12-01T04:12:50.126Z,93743.69
2018-12-01T04:15:18.397Z,93743.51
2018-12-01T04:17:46.607Z,93736.44
2018-12-01T04:20:14.770Z,93742.30
2018-12-01T04:22:42.930Z,93735.92
2018-12-01T04:25:11.272Z,93729.58
2018-12-01T04:27:40.058Z,93732.60
2018-12-01T04:30:11.306Z,93739.25
2018-12-01T04:32:39.517Z,93751.36
2018-12-01T04:35:08.137Z,93759.14
2018-12-01T04:37:36.697Z,93762.89
2018-12-01T04:40:06.798Z,93766.61
2018-12-01T04:42:34.989Z,93765.83
2018-12-01T04:45:03.374Z,93765.77
2018-12-01T04:47:32.045Z,93764.00
2018-12-01T04:50:00.490Z,93757.73
2018-12-01T04:52:29.067Z,93761.13
2018-12-01T04:54:57.346Z,93763.70
2018-12-01T04:57:25.890Z,93771.97
2018-12-01T04:59:54.410Z,93774.58
2018-12-01T05:02:22.534Z,93778.32
2018-12-01T05:04:50.976Z,93777.59
2018-12-01T05:07:19.176Z,93779.63
2018-12-01T05:09:48.097Z,93776.63
2018-12-01T05:12:16.869Z,93777.89
2018-12-01T05:14:45.631Z,93786.27
2018-12-01T05:17:13.853Z,93794.88
2018-12-01T05:19:42.149Z,93792.66
2018-12-01T05:22:10.410Z,93791.40
2018-12-01T05:24:38.713Z,93782.83
2018-12-01T05:27:07.012Z,93791.11
2018-12-01T05:29:35.459Z,93789.59
2018-12-01T05:32:04.178Z,93796.17
2018-12-01T05:34:32.760Z,93804.45
2018-12-01T05:37:01.075Z,93801.17
2018-12-01T05:39:29.435Z,93814.23
2018-12-01T05:41:57.630Z,93808.05
2018-12-01T05:44:26.149Z,93799.66
2018-12-01T05:46:54.473Z,93797.98
2018-12-01T05:49:22.970Z,93809.66
2018-12-01T05:51:51.207Z,93818.53
2018-12-01T05:54:19.643Z,93830.01
2018-12-01T05:56:48.075Z,93841.02
2018-12-01T05:59:16.260Z,93848.95
2018-12-01T06:01:44.755Z,93849.31
2018-12-01T06:04:13.033Z,93850.37
2018-12-01T06:06:41.349Z,93853.94
2018-12-01T06:09:09.858Z,93852.16
2018-12-01T06:11:37.952Z,93852.52
2018-12-01T06:14:06.096Z,93844.39
2018-12-01T06:16:34.923Z,93847.02
2018-12-01T06:19:02.613Z,93853.84
2018-12-01T06:21:30.821Z,93854.98
2018-12-01T06:23:59.108Z,93858.35
2018-12-01T06:26:27.373Z,93867.73
2018-12-01T06:28:55.724Z,93859.04
2018-12-01T06:31:24.128Z,93850.74
2018-12-01T06:33:52.510Z,93846.88
2018-12-01T06:36:20.753Z,93852.20
2018-12-01T06:38:49.170Z,93844.35
2018-12-01T06:41:17.810Z,93853.47
2018-12-01T06:43:46.594Z,93859.80
2018-12-01T06:46:15.323Z,93862.01
2018-12-01T06:48:43.962Z,93862.63
2018-12-01T06:51:12.518Z,93862.52
2018-12-01T06:53:42.303Z,93868.98
2018-12-01T06:56:11.704Z,93869.77
2018-12-01T06:58:40.508Z,93873.68
2018-12-01T07:01:09.192Z,93874.67
2018-12-01T07:03:38.101Z,93879.56
2018-12-01T07:06:06.672Z,93877.02
2018-12-01T07:08:35.191Z,93868.78
2018-12-01T07:11:03.717Z,93864.73
2018-12-01T07:13:32.264Z,93871.44
2018-12-01T07:16:00.908Z,93872.16
2018-12-01T07:18:40.631Z,93874.25
2018-12-01T07:21:09.312Z,93873.19
2018-12-01T07:23:37.841Z,93864.77
2018-12-01T07:26:06.644Z,93867.39
2018-12-01T07:28:35.028Z,93873.65
2018-12-01T07:31:03.823Z,93866.53
2018-12-01T07:33:32.840Z,93876.33
2018-12-01T07:36:01.707Z,93876.38
2018-12-01T07:38:31.465Z,93871.25
2018-12-01T07:41:00.407Z,93863.61
2018-12-01T07:43:29.314Z,93854.67
2018-12-01T07:45:57.767Z,93861.91
2018-12-01T07:48:26.521Z,93870.36
2018-12-01T07:50:55.611Z,93862.34
2018-12-01T07:53:24.578Z,93867.48
2018-12-01T07:55:53.290Z,93877.21
2018-12-01T07:58:21.953Z,93871.72
2018-12-01T08:00:50.500Z,93870.05
2018-12-01T08:03:19.037Z,93870.47
2018-12-01T08:05:47.812Z,93883.53
2018-12-01T08:08:16.590Z,93874.69
2018-12-01T08:10:44.973Z,93876.97
2018-12-01T08:13:13.536Z,93878.08
2018-12-01T08:15:42.543Z,93881.02
2018-12-01T08:18:11.559Z,93884.30
2018-12-01T08:20:40.202Z,93885.77
2018-12-01T08:23:09.203Z,93893.81
2018-12-01T08:25:37.688Z,93898.58
2018-12-01T08:28:07.600Z,93896.03
2018-12-01T08:30:36.410Z,93900.37
2018-12-01T08:33:04.949Z,93890.98
2018-12-01T08:35:33.546Z,93903.91
2018-12-01T08:38:02.759Z,93904.64
2018-12-01T08:40:32.116Z,93901.50
2018-12-01T08:43:01.108Z,93894.64
2018-12-01T08:45:30.481Z,93896.22
2018-12-01T08:47:59.414Z,93905.97
2018-12-01T08:50:27.859Z,93892.78
2018-12-01T08:52:56.316Z,93899.99
2018-12-01T08:55:25.007Z,93891.62
2018-12-01T08:57:53.771Z,93895.52
2018-12-01T09:00:32.528Z,93896.63
2018-12-01T09:03:18.300Z,93901.84
2018-12-01T09:05:46.755Z,93901.92
2018-12-01T09:08:15.061Z,93894.65
2018-12-01T09:10:43.559Z,93894.17
2018-12-01T09:13:12.090Z,93889.17
2018-12-01T09:15:40.711Z,93891.67
2018-12-01T09:18:09.150Z,93896.77
2018-12-01T09:20:37.874Z,93891.75
2018-12-01T09:23:06.591Z,93883.47
2018-12-01T09:25:35.329Z,93887.56
2018-12-01T09:28:04.036Z,93891.88
2018-12-01T09:30:34.173Z,93885.95
2018-12-01T09:33:03.430Z,93881.75
2018-12-01T09:35:32.574Z,93882.97
2018-12-01T09:38:01.440Z,93872.60
2018-12-01T09:40:30.140Z,93863.64
2018-12-01T09:42:58.579Z,93862.22
2018-12-01T09:45:26.979Z,93870.41
2018-12-01T09:47:55.962Z,93865.90
2018-12-01T09:50:24.636Z,93860.47
2018-12-01T09:52:54.640Z,93867.92
2018-12-01T09:55:24.242Z,93872.46
2018-12-01T09:57:52.712Z,93877.33
2018-12-01T10:00:25.449Z,93878.73
2018-12-01T10:02:54.417Z,93868.27
2018-12-01T10:05:23.011Z,93863.61
2018-12-01T10:07:51.722Z,93861.34
2018-12-01T10:10:21.376Z,93855.38
2018-12-01T10:12:50.761Z,93854.73
2018-12-01T10:15:21.055Z,93851.24
2018-12-01T10:17:49.650Z,93852.38
2018-12-01T10:20:22.171Z,93848.88
2018-12-01T10:22:50.781Z,93852.85
2018-12-01T10:25:19.674Z,93849.84
2018-12-01T10:27:48.104Z,93851.95
2018-12-01T10:30:17.327Z,93843.73
2018-12-01T10:32:45.923Z,93845.07
2018-12-01T10:35:17.491Z,93841.44
2018-12-01T10:37:50.474Z,93836.53
2018-12-01T10:40:19.342Z,93835.62
2018-12-01T10:42:47.844Z,93837.13
2018-12-01T10:45:17.307Z,93837.38
2018-12-01T10:47:46.116Z,93831.45
2018-12-01T10:50:18.903Z,93830.55
2018-12-01T10:52:48.470Z,93839.45
2018-12-01T10:55:23.252Z,93833.27
2018-12-01T10:57:52.756Z,93832.34
2018-12-01T11:00:27.292Z,93829.24
2018-12-01T11:03:59.694Z,93829.72
2018-12-01T11:06:28.355Z,93829.30
2018-12-01T11:08:56.982Z,93831.96
2018-12-01T11:11:25.928Z,93833.27
2018-12-01T11:13:54.802Z,93834.49
2018-12-01T11:16:23.904Z,93832.48
2018-12-01T11:18:52.576Z,93836.73
2018-12-01T11:21:21.133Z,93830.53
2018-12-01T11:23:49.721Z,93829.08
2018-12-01T11:26:18.534Z,93829.88
2018-12-01T11:28:47.376Z,93833.09
2018-12-01T11:31:16.093Z,93837.89
2018-12-01T11:33:44.548Z,93840.49
2018-12-01T11:36:13.262Z,93836.98
2018-12-01T11:38:42.096Z,93833.01
2018-12-01T11:41:10.958Z,93834.36
2018-12-01T11:43:39.755Z,93832.16
2018-12-01T11:46:08.282Z,93828.30
2018-12-01T11:48:36.939Z,93826.08
2018-12-01T11:51:05.494Z,93830.66
2018-12-01T11:53:34.075Z,93816.96
2018-12-01T11:56:02.686Z,93821.33
2018-12-01T11:58:31.177Z,93817.66
2018-12-01T12:00:59.840Z,93825.45
2018-12-01T12:03:28.428Z,93822.21
2018-12-01T12:05:57.482Z,93819.59
2018-12-01T12:08:26.840Z,93816.42
2018-12-01T12:10:55.408Z,93821.21
2018-12-01T12:13:25.599Z,93812.66
2018-12-01T12:15:54.419Z,93807.63
2018-12-01T12:18:23.481Z,93803.88
2018-12-01T12:20:52.171Z,93813.67
2018-12-01T12:23:21.378Z,93815.36
2018-12-01T12:25:49.961Z,93813.20
2018-12-01T12:28:18.508Z,93812.30
2018-12-01T12:30:47.172Z,93813.73
2018-12-01T12:33:15.933Z,93816.89
2018-12-01T12:35:45.063Z,93811.19
2018-12-01T12:38:14.562Z,93824.83
2018-12-01T12:40:44.186Z,93819.47
2018-12-01T12:43:13.660Z,93818.40
2018-12-01T12:45:43.361Z,93820.47
2018-12-01T12:48:12.179Z,93827.09
2018-12-01T12:50:41.036Z,93820.31
2018-12-01T12:53:11.218Z,93818.66
2018-12-01T12:55:40.082Z,93826.08
2018-12-01T12:58:08.765Z,93831.28
2018-12-01T13:00:37.507Z,93834.01
2018-12-01T13:03:09.114Z,93831.94
2018-12-01T13:05:42.143Z,93824.18
2018-12-01T13:08:11.605Z,93821.52
2018-12-01T13:10:40.359Z,93828.64
2018-12-01T13:13:09.128Z,93825.67
2018-12-01T13:15:38.630Z,93820.97
2018-12-01T13:18:09.907Z,93819.95
2018-12-01T13:20:38.562Z,93818.81
2018-12-01T13:23:07.559Z,93822.56
2018-12-01T13:25:36.365Z,93818.23
2018-12-01T13:28:15.851Z,93820.45
2018-12-01T13:30:45.733Z,93814.39
2018-12-01T13:33:14.344Z,93816.30
2018-12-01T13:35:42.964Z,93820.42
2018-12-01T13:38:11.517Z,93815.15
2018-12-01T13:40:40.006Z,93814.70
2018-12-01T13:43:08.719Z,93810.77
2018-12-01T13:45:37.624Z,93816.81
2018-12-01T13:48:06.859Z,93818.52
2018-12-01T13:50:35.393Z,93815.03
2018-12-01T13:53:05.992Z,93814.36
2018-12-01T13:55:34.457Z,93808.33
2018-12-01T13:58:02.939Z,93814.99
2018-12-01T14:00:31.965Z,93818.97
2018-12-01T14:03:00.656Z,93821.06
2018-12-01T14:05:28.987Z,93819.48
2018-12-01T14:07:57.527Z,93828.84
2018-12-01T14:10:27.796Z,93827.08
2018-12-01T14:13:04.288Z,93831.54
2018-12-01T14:15:32.905Z,93833.62
2018-12-01T14:18:01.483Z,93836.38
2018-12-01T14:20:30.175Z,93835.81
2018-12-01T14:22:58.861Z,93841.89
2018-12-01T14:25:27.884Z,93843.63
2018-12-01T14:27:58.103Z,93857.37
2018-12-01T14:30:27.179Z,93851.13
2018-12-01T14:32:56.266Z,93847.84
2018-12-01T14:35:27.883Z,93853.52
2018-12-01T14:38:17.112Z,93853.16
2018-12-01T14:40:46.447Z,93852.81
2018-12-01T14:43:15.052Z,93848.23
2018-12-01T14:45:47.441Z,93858.56
2018-12-01T14:48:16.019Z,93862.87
2018-12-01T14:50:48.585Z,93872.28
2018-12-01T14:53:14.061Z,93873.56
2018-12-01T14:55:42.556Z,93878.27
2018-12-01T14:58:11.153Z,93881.25
2018-12-01T15:00:42.302Z,93874.06
2018-12-01T15:03:11.977Z,93876.17
2018-12-01T15:05:42.166Z,93877.05
2018-12-01T15:08:11.789Z,93875.83
2018-12-01T15:10:41.182Z,93877.11
2018-12-01T15:13:10.806Z,93873.73
2018-12-01T15:15:40.605Z,93873.73
2018-12-01T15:18:09.725Z,93876.33
2018-12-01T15:23:35.579Z,93880.98
2018-12-01T15:26:04.636Z,93877.16
2018-12-01T15:28:33.957Z,93878.05
2018-12-01T15:31:03.184Z,93886.06
2018-12-01T15:33:31.743Z,93881.90
2018-12-01T15:36:00.770Z,93881.11
2018-12-01T15:38:30.343Z,93885.32
2018-12-01T15:40:59.286Z,93887.94
2018-12-01T15:43:28.683Z,93886.23
2018-12-01T15:45:59.164Z,93887.06
2018-12-01T15:48:30.089Z,93887.06
2018-12-01T15:50:58.809Z,93882.81
2018-12-01T15:53:28.572Z,93893.82
2018-12-01T15:55:57.376Z,93894.25
2018-12-01T15:58:26.699Z,93896.36
2018-12-01T16:00:55.198Z,93896.77
2018-12-01T16:03:24.359Z,93898.50
2018-12-01T16:05:54.208Z,93894.69
2018-12-01T16:08:23.103Z,93898.50
2018-12-01T16:10:52.449Z,93897.70
2018-12-01T16:13:22.748Z,93893.02
2018-12-01T16:15:57.266Z,93893.05
2018-12-01T16:18:26.883Z,93891.38
2018-12-01T16:20:55.492Z,93885.03
2018-12-01T16:23:24.260Z,93889.25
2018-12-01T16:25:53.440Z,93881.66
2018-12-01T16:28:22.285Z,93885.87
2018-12-01T16:30:52.402Z,93896.03
2018-12-01T16:33:22.906Z,93891.35
2018-12-01T16:35:51.819Z,93891.35
2018-12-01T16:38:26.110Z,93895.20
2018-12-01T16:41:02.354Z,93898.61
2018-12-01T16:43:33.802Z,93904.09
2018-12-01T16:46:02.607Z,93903.66
2018-12-01T16:48:31.495Z,93907.06
2018-12-01T16:51:00.178Z,93913.45
2018-12-01T16:53:28.958Z,93912.18
2018-12-01T16:55:57.434Z,93913.42
2018-12-01T16:58:26.069Z,93914.66
2018-12-01T17:00:54.690Z,93917.63
2018-12-01T17:03:23.291Z,93914.23
2018-12-01T17:05:54.372Z,93911.72
2018-12-01T17:08:22.872Z,93918.07
2018-12-01T17:10:51.481Z,93914.74
2018-12-01T17:13:20.074Z,93926.22
2018-12-01T17:15:48.504Z,93931.31
2018-12-01T17:18:17.152Z,93927.49
2018-12-01T17:20:45.806Z,93917.30
2018-12-01T17:23:15.305Z,93922.39
2018-12-01T17:25:43.944Z,93924.52
2018-12-01T17:28:13.945Z,93924.55
2018-12-01T17:30:42.476Z,93923.27
2018-12-01T17:33:11.044Z,93918.22
2018-12-01T17:35:39.587Z,93927.95
2018-12-01T17:38:13.074Z,93930.05
2018-12-01T17:40:44.214Z,93922.88
2018-12-01T17:43:14.600Z,93923.29
2018-12-01T17:45:43.115Z,93923.30
2018-12-01T17:48:11.712Z,93927.53
2018-12-01T17:50:40.614Z,93925.83
2018-12-01T17:53:10.423Z,93923.31
2018-12-01T17:55:38.350Z,93926.70
2018-12-01T17:58:08.652Z,93922.90
2018-12-01T18:00:37.216Z,93923.73
2018-12-01T18:03:06.503Z,93923.73
2018-12-01T18:05:44.022Z,93924.17
2018-12-01T18:08:15.152Z,93923.73
2018-12-01T18:10:44.082Z,93919.94
2018-12-01T18:13:12.836Z,93920.34
2018-12-01T18:15:41.385Z,93914.02
2018-12-01T18:18:10.287Z,93923.31
2018-12-01T18:20:38.973Z,93924.58
2018-12-01T18:23:08.996Z,93921.63
2018-12-01T18:25:40.938Z,93924.15
2018-12-01T18:28:11.521Z,93929.24
2018-12-01T18:30:41.334Z,93929.23
2018-12-01T18:33:15.923Z,93935.56
2018-12-01T18:35:45.242Z,93927.56
2018-12-01T18:38:14.489Z,93915.27
2018-12-01T18:40:43.619Z,93920.37
2018-12-01T18:43:12.560Z,93915.70
2018-12-01T18:45:43.329Z,93917.80
2018-12-01T18:48:12.539Z,93922.02
2018-12-01T18:50:42.617Z,93916.09
2018-12-01T18:53:11.936Z,93924.55
2018-12-01T18:55:44.128Z,93924.53
2018-12-01T18:58:12.793Z,93930.02
2018-12-01T19:00:45.252Z,93929.60
2018-12-01T19:03:14.269Z,93918.98
2018-12-01T19:05:43.074Z,93926.98
2018-12-01T19:08:12.312Z,93921.88
2018-12-01T19:10:42.822Z,93921.05
2018-12-01T19:13:11.580Z,93929.10
2018-12-01T19:15:41.260Z,93924.45
2018-12-01T19:18:09.894Z,93921.88
2018-12-01T19:20:38.727Z,93921.45
2018-12-01T19:23:08.877Z,93925.26
2018-12-01T19:25:39.222Z,93928.23
2018-12-01T19:28:07.926Z,93935.02
2018-12-01T19:30:36.718Z,93925.69
2018-12-01T19:33:10.887Z,93929.07
2018-12-01T19:35:39.864Z,93923.16
2018-12-01T19:38:09.883Z,93932.05
2018-12-01T19:40:38.617Z,93924.42
2018-12-01T19:43:07.217Z,93930.75
2018-12-01T19:45:36.097Z,93928.20
2018-12-01T19:48:04.929Z,93920.61
2018-12-01T19:50:34.452Z,93938.31
2018-12-01T19:53:03.098Z,93930.38
2018-12-01T19:55:32.669Z,93937.12
2018-12-01T19:58:02.673Z,93945.18
2018-12-01T20:00:31.481Z,93949.47
2018-12-01T20:03:03.413Z,93950.78
2018-12-01T20:05:32.417Z,93955.84
2018-12-01T20:08:00.984Z,93954.16
2018-12-01T20:10:33.275Z,93944.44
2018-12-01T20:13:08.322Z,93941.45
2018-12-01T20:15:41.285Z,93939.78
2018-12-01T20:18:17.830Z,93940.59
2018-12-01T20:20:46.331Z,93948.22
2018-12-01T20:23:14.898Z,93941.83
2018-12-01T20:25:43.918Z,93950.31
2018-12-01T20:28:12.361Z,93952.05
2018-12-01T20:30:42.161Z,93946.53
2018-12-01T20:33:10.792Z,93948.64
2018-12-01T20:35:41.597Z,93950.78
2018-12-01T20:38:12.987Z,93954.17
2018-12-01T20:40:41.434Z,93949.52
2018-12-01T20:43:10.091Z,93948.18
2018-12-01T20:45:38.802Z,93948.22
2018-12-01T20:48:07.349Z,93955.83
2018-12-01T20:50:36.110Z,93961.34
2018-12-01T20:53:04.786Z,93960.93
2018-12-01T20:55:33.599Z,93971.11
2018-12-01T20:58:04.385Z,93970.24
2018-12-01T21:00:33.316Z,93967.30
2018-12-01T21:03:02.130Z,93967.30
2018-12-01T21:05:30.744Z,93959.64
2018-12-01T21:08:02.279Z,93959.24
2018-12-01T21:10:30.508Z,93952.89
2018-12-01T21:13:00.797Z,93958.36
2018-12-01T21:15:29.735Z,93963.02
2018-12-01T21:17:58.404Z,93951.15
2018-12-01T21:20:27.303Z,93959.61
2018-12-01T21:22:55.812Z,93968.09
2018-12-01T21:25:26.279Z,93974.04
2018-12-01T21:27:57.961Z,93970.61
2018-12-01T21:30:27.443Z,93968.48
2018-12-01T21:33:01.472Z,93965.54
2018-12-01T21:35:30.242Z,93964.28
2018-12-01T21:37:58.939Z,93965.13
2018-12-01T21:40:27.728Z,93965.54
2018-12-01T21:42:55.975Z,93964.67
2018-12-01T21:45:24.604Z,93963.83
2018-12-01T21:47:53.321Z,93957.05
2018-12-01T21:50:22.473Z,93957.91
2018-12-01T21:52:54.847Z,93958.73
2018-12-01T21:55:23.849Z,93956.63
2018-12-01T21:57:52.894Z,93959.59
2018-12-01T22:00:26.110Z,93960.02
2018-12-01T22:03:00.551Z,93960.45
2018-12-01T22:05:31.719Z,93957.07
2018-12-01T22:08:00.200Z,93957.50
2018-12-01T22:10:28.699Z,93957.89
2018-12-01T22:12:57.217Z,93959.97
2018-12-01T22:15:25.569Z,93957.86
2018-12-01T22:17:54.022Z,93960.00
2018-12-01T22:20:22.982Z,93957.45
2018-12-01T22:22:51.692Z,93958.30
2018-12-01T22:25:20.143Z,93960.87
2018-12-01T22:27:48.900Z,93963.84
2018-12-01T22:30:19.100Z,93965.13
2018-12-01T22:32:53.525Z,93973.17
2018-12-01T22:35:29.232Z,93966.42
2018-12-01T22:37:58.126Z,93968.97
2018-12-01T22:40:29.294Z,93961.78
2018-12-01T22:42:58.909Z,93970.25
2018-12-01T22:45:27.153Z,93963.05
2018-12-01T22:47:55.598Z,93957.53
2018-12-01T22:50:24.091Z,93951.19
2018-12-01T22:52:52.852Z,93949.94
2018-12-01T22:55:22.935Z,93955.41
2018-12-01T22:57:53.315Z,93952.86
2018-12-01T23:00:23.593Z,93946.11
2018-12-01T23:02:51.889Z,93949.48
2018-12-01T23:05:20.060Z,93956.67
2018-12-01T23:07:48.328Z,93956.67
2018-12-01T23:10:17.058Z,93955.88
2018-12-01T23:12:46.084Z,93959.26
2018-12-01T23:15:16.218Z,93957.58
2018-12-01T23:17:46.522Z,93955.03
2018-12-01T23:20:19.733Z,93946.58
2018-12-01T23:22:48.464Z,93946.59
2018-12-01T23:25:16.977Z,93955.47
2018-12-01T23:27:45.307Z,93947.84
2018-12-01T23:30:30.288Z,93946.16
2018-12-01T23:33:16.801Z,93945.73
2018-12-01T23:35:44.999Z,93950.81
2018-12-01T23:38:13.401Z,93949.13
2018-12-01T23:40:41.770Z,93947.84
2018-12-01T23:43:10.045Z,93944.46
2018-12-01T23:45:39.813Z,93950.83
2018-12-01T23:48:08.109Z,93949.95
2018-12-01T23:50:37.140Z,93956.74
2018-12-01T23:53:08.209Z,93948.27
2018-12-01T23:55:36.685Z,93951.66
2018-12-01T23:58:04.913Z,93948.27
